sensor_id;sensor_type;location;lat;lon;timestamp;temperature;humidity
47482;DHT22;33219;47.410;9.730;2023-12-14T00:00:09;5.50;99.90
47482;DHT22;33219;47.410;9.730;2023-12-14T00:02:36;5.50;99.90
47482;DHT22;33219;47.410;9.730;2023-12-14T00:05:03;5.50;99.90
47482;DHT22;33219;47.410;9.730;2023-12-14T00:07:29;5.50;99.90
47482;DHT22;33219;47.410;9.730;2023-12-14T00:09:56;5.60;99.90
47482;DHT22;33219;47.410;9.730;2023-12-14T00:12:23;5.60;99.90
47482;DHT22;33219;47.410;9.730;2023-12-14T00:14:50;5.60;99.90
47482;DHT22;33219;47.410;9.730;2023-12-14T00:17:17;5.60;99.90
47482;DHT22;33219;47.410;9.730;2023-12-14T00:19:44;5.60;99.90
47482;DHT22;33219;47.410;9.730;2023-12-14T00:22:11;5.60;99.90
47482;DHT22;33219;47.410;9.730;2023-12-14T00:24:38;5.50;99.90
47482;DHT22;33219;47.410;9.730;2023-12-14T00:27:05;5.60;99.90
47482;DHT22;33219;47.410;9.730;2023-12-14T00:29:31;5.50;99.90
47482;DHT22;33219;47.410;9.730;2023-12-14T00:31:58;5.50;99.90
47482;DHT22;33219;47.410;9.730;2023-12-14T00:34:25;5.50;99.90
47482;DHT22;33219;47.410;9.730;2023-12-14T00:36:52;5.50;99.90
47482;DHT22;33219;47.410;9.730;2023-12-14T00:39:19;5.40;99.90
47482;DHT22;33219;47.410;9.730;2023-12-14T00:41:46;5.40;99.90
47482;DHT22;33219;47.410;9.730;2023-12-14T00:44:13;5.40;99.90
47482;DHT22;33219;47.410;9.730;2023-12-14T00:46:40;5.40;99.90
47482;DHT22;33219;47.410;9.730;2023-12-14T00:49:07;5.40;99.90
47482;DHT22;33219;47.410;9.730;2023-12-14T00:51:34;5.40;99.90
47482;DHT22;33219;47.410;9.730;2023-12-14T00:54:01;5.40;99.90
47482;DHT22;33219;47.410;9.730;2023-12-14T00:56:28;5.40;99.90
47482;DHT22;33219;47.410;9.730;2023-12-14T00:58:56;5.40;99.90
47482;DHT22;33219;47.410;9.730;2023-12-14T01:01:22;5.50;99.90
47482;DHT22;33219;47.410;9.730;2023-12-14T01:03:49;5.40;99.90
47482;DHT22;33219;47.410;9.730;2023-12-14T01:06:16;5.40;99.90
47482;DHT22;33219;47.410;9.730;2023-12-14T01:08:43;5.40;99.90
47482;DHT22;33219;47.410;9.730;2023-12-14T01:11:10;5.40;99.90
47482;DHT22;33219;47.410;9.730;2023-12-14T01:13:37;5.40;99.90
47482;DHT22;33219;47.410;9.730;2023-12-14T01:16:04;5.40;99.90
47482;DHT22;33219;47.410;9.730;2023-12-14T01:18:31;5.40;99.90
47482;DHT22;33219;47.410;9.730;2023-12-14T01:20:58;5.50;99.90
47482;DHT22;33219;47.410;9.730;2023-12-14T01:23:24;5.40;99.90
47482;DHT22;33219;47.410;9.730;2023-12-14T01:25:51;5.40;99.90
47482;DHT22;33219;47.410;9.730;2023-12-14T01:28:18;5.50;99.90
47482;DHT22;33219;47.410;9.730;2023-12-14T01:30:45;5.50;99.90
47482;DHT22;33219;47.410;9.730;2023-12-14T01:33:12;5.50;99.90
47482;DHT22;33219;47.410;9.730;2023-12-14T01:35:39;5.50;99.90
47482;DHT22;33219;47.410;9.730;2023-12-14T01:38:05;5.40;99.90
47482;DHT22;33219;47.410;9.730;2023-12-14T01:40:32;5.40;99.90
47482;DHT22;33219;47.410;9.730;2023-12-14T01:43:08;5.40;99.90
47482;DHT22;33219;47.410;9.730;2023-12-14T01:45:37;5.40;99.90
47482;DHT22;33219;47.410;9.730;2023-12-14T01:48:04;5.40;99.90
47482;DHT22;33219;47.410;9.730;2023-12-14T01:50:31;5.40;99.90
47482;DHT22;33219;47.410;9.730;2023-12-14T01:52:58;5.30;99.90
47482;DHT22;33219;47.410;9.730;2023-12-14T01:55:25;5.30;99.90
47482;DHT22;33219;47.410;9.730;2023-12-14T01:57:53;5.30;99.90
47482;DHT22;33219;47.410;9.730;2023-12-14T02:00:25;5.40;99.90
47482;DHT22;33219;47.410;9.730;2023-12-14T02:02:48;5.30;99.90
47482;DHT22;33219;47.410;9.730;2023-12-14T02:05:15;5.40;99.90
47482;DHT22;33219;47.410;9.730;2023-12-14T02:07:42;5.30;99.90
47482;DHT22;33219;47.410;9.730;2023-12-14T02:10:09;5.30;99.90
47482;DHT22;33219;47.410;9.730;2023-12-14T02:12:36;5.30;99.90
47482;DHT22;33219;47.410;9.730;2023-12-14T02:15:02;5.30;99.90
47482;DHT22;33219;47.410;9.730;2023-12-14T02:17:29;5.20;99.90
47482;DHT22;33219;47.410;9.730;2023-12-14T02:19:56;5.30;99.90
47482;DHT22;33219;47.410;9.730;2023-12-14T02:22:24;5.30;99.90
47482;DHT22;33219;47.410;9.730;2023-12-14T02:24:51;5.30;99.90
47482;DHT22;33219;47.410;9.730;2023-12-14T02:27:17;5.20;99.90
47482;DHT22;33219;47.410;9.730;2023-12-14T02:29:44;5.20;99.90
47482;DHT22;33219;47.410;9.730;2023-12-14T02:32:11;5.20;99.90
47482;DHT22;33219;47.410;9.730;2023-12-14T02:34:38;5.20;99.90
47482;DHT22;33219;47.410;9.730;2023-12-14T02:37:05;5.20;99.90
47482;DHT22;33219;47.410;9.730;2023-12-14T02:39:32;5.20;99.90
47482;DHT22;33219;47.410;9.730;2023-12-14T02:41:59;5.20;99.90
47482;DHT22;33219;47.410;9.730;2023-12-14T02:44:26;5.20;99.90
47482;DHT22;33219;47.410;9.730;2023-12-14T02:46:52;5.10;99.90
47482;DHT22;33219;47.410;9.730;2023-12-14T02:49:19;5.20;99.90
47482;DHT22;33219;47.410;9.730;2023-12-14T02:51:47;5.20;99.90
47482;DHT22;33219;47.410;9.730;2023-12-14T02:54:14;5.20;99.90
47482;DHT22;33219;47.410;9.730;2023-12-14T02:56:40;5.20;99.90
47482;DHT22;33219;47.410;9.730;2023-12-14T02:59:07;5.20;99.90
47482;DHT22;33219;47.410;9.730;2023-12-14T03:01:34;5.20;99.90
47482;DHT22;33219;47.410;9.730;2023-12-14T03:04:01;5.20;99.90
47482;DHT22;33219;47.410;9.730;2023-12-14T03:06:28;5.30;99.90
47482;DHT22;33219;47.410;9.730;2023-12-14T03:08:54;5.30;99.90
47482;DHT22;33219;47.410;9.730;2023-12-14T03:11:21;5.30;99.90
47482;DHT22;33219;47.410;9.730;2023-12-14T03:13:50;5.30;99.90
47482;DHT22;33219;47.410;9.730;2023-12-14T03:16:17;5.30;99.90
47482;DHT22;33219;47.410;9.730;2023-12-14T03:18:44;5.30;99.90
47482;DHT22;33219;47.410;9.730;2023-12-14T03:21:11;5.30;99.90
47482;DHT22;33219;47.410;9.730;2023-12-14T03:23:38;5.20;99.90
47482;DHT22;33219;47.410;9.730;2023-12-14T03:26:05;5.20;99.90
47482;DHT22;33219;47.410;9.730;2023-12-14T03:28:32;5.20;99.90
47482;DHT22;33219;47.410;9.730;2023-12-14T03:30:59;5.20;99.90
47482;DHT22;33219;47.410;9.730;2023-12-14T03:33:26;5.20;99.90
47482;DHT22;33219;47.410;9.730;2023-12-14T03:35:53;5.20;99.90
47482;DHT22;33219;47.410;9.730;2023-12-14T03:38:20;5.20;99.90
47482;DHT22;33219;47.410;9.730;2023-12-14T03:40:46;5.20;99.90
47482;DHT22;33219;47.410;9.730;2023-12-14T03:43:13;5.20;99.90
47482;DHT22;33219;47.410;9.730;2023-12-14T03:45:40;5.20;99.90
47482;DHT22;33219;47.410;9.730;2023-12-14T03:48:07;5.20;99.90
47482;DHT22;33219;47.410;9.730;2023-12-14T03:50:34;5.20;99.90
47482;DHT22;33219;47.410;9.730;2023-12-14T03:53:01;5.20;99.90
47482;DHT22;33219;47.410;9.730;2023-12-14T03:55:28;5.20;99.90
47482;DHT22;33219;47.410;9.730;2023-12-14T03:57:54;5.30;99.90
47482;DHT22;33219;47.410;9.730;2023-12-14T04:00:21;5.20;99.90
47482;DHT22;33219;47.410;9.730;2023-12-14T04:02:48;5.20;99.90
47482;DHT22;33219;47.410;9.730;2023-12-14T04:05:15;5.10;99.90
47482;DHT22;33219;47.410;9.730;2023-12-14T04:07:42;5.10;99.90
47482;DHT22;33219;47.410;9.730;2023-12-14T04:10:09;5.10;99.90
47482;DHT22;33219;47.410;9.730;2023-12-14T04:12:36;5.00;99.90
47482;DHT22;33219;47.410;9.730;2023-12-14T04:15:04;5.00;99.90
47482;DHT22;33219;47.410;9.730;2023-12-14T04:17:31;4.90;99.90
47482;DHT22;33219;47.410;9.730;2023-12-14T04:19:58;4.90;99.90
47482;DHT22;33219;47.410;9.730;2023-12-14T04:22:25;4.90;99.90
47482;DHT22;33219;47.410;9.730;2023-12-14T04:24:52;4.90;99.90
47482;DHT22;33219;47.410;9.730;2023-12-14T04:27:19;4.90;99.90
47482;DHT22;33219;47.410;9.730;2023-12-14T04:29:46;4.90;99.90
47482;DHT22;33219;47.410;9.730;2023-12-14T04:32:13;4.90;99.90
47482;DHT22;33219;47.410;9.730;2023-12-14T04:34:40;4.90;99.90
47482;DHT22;33219;47.410;9.730;2023-12-14T04:37:06;4.80;99.90
47482;DHT22;33219;47.410;9.730;2023-12-14T04:39:34;4.80;99.90
47482;DHT22;33219;47.410;9.730;2023-12-14T04:42:01;4.70;99.90
47482;DHT22;33219;47.410;9.730;2023-12-14T04:44:28;4.70;99.90
47482;DHT22;33219;47.410;9.730;2023-12-14T04:46:55;4.60;99.90
47482;DHT22;33219;47.410;9.730;2023-12-14T04:49:21;4.60;99.90
47482;DHT22;33219;47.410;9.730;2023-12-14T04:51:48;4.60;99.90
47482;DHT22;33219;47.410;9.730;2023-12-14T04:54:15;4.50;99.90
47482;DHT22;33219;47.410;9.730;2023-12-14T04:56:45;4.60;99.90
47482;DHT22;33219;47.410;9.730;2023-12-14T04:59:10;4.50;99.90
47482;DHT22;33219;47.410;9.730;2023-12-14T05:01:37;4.50;99.90
47482;DHT22;33219;47.410;9.730;2023-12-14T05:04:04;4.50;99.90
47482;DHT22;33219;47.410;9.730;2023-12-14T05:06:31;4.40;99.90
47482;DHT22;33219;47.410;9.730;2023-12-14T05:08:59;4.30;99.90
47482;DHT22;33219;47.410;9.730;2023-12-14T05:11:28;4.40;99.90
47482;DHT22;33219;47.410;9.730;2023-12-14T05:13:54;4.30;99.90
47482;DHT22;33219;47.410;9.730;2023-12-14T05:16:21;4.30;99.90
47482;DHT22;33219;47.410;9.730;2023-12-14T05:18:48;4.30;99.90
47482;DHT22;33219;47.410;9.730;2023-12-14T05:21:18;4.30;99.90
47482;DHT22;33219;47.410;9.730;2023-12-14T05:23:45;4.20;99.90
47482;DHT22;33219;47.410;9.730;2023-12-14T05:26:12;4.20;99.90
47482;DHT22;33219;47.410;9.730;2023-12-14T05:28:39;4.20;99.90
47482;DHT22;33219;47.410;9.730;2023-12-14T05:31:06;4.20;99.90
47482;DHT22;33219;47.410;9.730;2023-12-14T05:33:36;4.20;99.90
47482;DHT22;33219;47.410;9.730;2023-12-14T05:36:01;4.20;99.90
47482;DHT22;33219;47.410;9.730;2023-12-14T05:38:28;4.20;99.90
47482;DHT22;33219;47.410;9.730;2023-12-14T05:40:55;4.20;99.90
47482;DHT22;33219;47.410;9.730;2023-12-14T05:43:22;4.10;99.90
47482;DHT22;33219;47.410;9.730;2023-12-14T05:45:49;4.10;99.90
47482;DHT22;33219;47.410;9.730;2023-12-14T05:48:15;4.10;99.90
47482;DHT22;33219;47.410;9.730;2023-12-14T05:50:42;4.10;99.90
47482;DHT22;33219;47.410;9.730;2023-12-14T05:53:09;4.10;99.90
47482;DHT22;33219;47.410;9.730;2023-12-14T05:55:36;4.20;99.90
47482;DHT22;33219;47.410;9.730;2023-12-14T05:58:05;4.10;99.90
47482;DHT22;33219;47.410;9.730;2023-12-14T06:00:32;4.10;99.90
47482;DHT22;33219;47.410;9.730;2023-12-14T06:03:00;4.10;99.90
47482;DHT22;33219;47.410;9.730;2023-12-14T06:05:27;4.00;99.90
47482;DHT22;33219;47.410;9.730;2023-12-14T06:07:54;4.10;99.90
47482;DHT22;33219;47.410;9.730;2023-12-14T06:10:21;4.10;99.90
47482;DHT22;33219;47.410;9.730;2023-12-14T06:12:48;4.10;99.90
47482;DHT22;33219;47.410;9.730;2023-12-14T06:15:15;4.10;99.90
47482;DHT22;33219;47.410;9.730;2023-12-14T06:17:42;4.10;99.90
47482;DHT22;33219;47.410;9.730;2023-12-14T06:20:09;4.10;99.90
47482;DHT22;33219;47.410;9.730;2023-12-14T06:22:36;4.10;99.90
47482;DHT22;33219;47.410;9.730;2023-12-14T06:25:03;4.10;99.90
47482;DHT22;33219;47.410;9.730;2023-12-14T06:27:30;4.20;99.90
47482;DHT22;33219;47.410;9.730;2023-12-14T06:30:01;4.10;99.90
47482;DHT22;33219;47.410;9.730;2023-12-14T06:32:28;4.10;99.90
47482;DHT22;33219;47.410;9.730;2023-12-14T06:34:57;4.10;99.90
47482;DHT22;33219;47.410;9.730;2023-12-14T06:40:23;4.10;99.90
47482;DHT22;33219;47.410;9.730;2023-12-14T06:42:55;4.20;99.90
47482;DHT22;33219;47.410;9.730;2023-12-14T06:45:32;4.10;99.90
47482;DHT22;33219;47.410;9.730;2023-12-14T06:53:38;4.20;99.90
47482;DHT22;33219;47.410;9.730;2023-12-14T08:25:41;4.50;99.90
47482;DHT22;33219;47.410;9.730;2023-12-14T08:57:58;4.70;99.90
47482;DHT22;33219;47.410;9.730;2023-12-14T09:03:36;4.80;99.90
47482;DHT22;33219;47.410;9.730;2023-12-14T10:12:20;5.00;99.90
47482;DHT22;33219;47.410;9.730;2023-12-14T10:36:34;5.20;99.90
47482;DHT22;33219;47.410;9.730;2023-12-14T12:03:54;5.50;99.90
47482;DHT22;33219;47.410;9.730;2023-12-14T12:12:06;5.40;99.90
47482;DHT22;33219;47.410;9.730;2023-12-14T12:14:38;5.40;99.90
47482;DHT22;33219;47.410;9.730;2023-12-14T12:23:24;5.30;99.90
47482;DHT22;33219;47.410;9.730;2023-12-14T12:26:02;5.20;99.90
47482;DHT22;33219;47.410;9.730;2023-12-14T12:35:00;4.90;99.90
47482;DHT22;33219;47.410;9.730;2023-12-14T12:37:47;4.80;99.90
47482;DHT22;33219;47.410;9.730;2023-12-14T12:40:20;4.80;99.90
47482;DHT22;33219;47.410;9.730;2023-12-14T12:42:58;4.90;99.90
47482;DHT22;33219;47.410;9.730;2023-12-14T12:45:42;4.90;99.90
47482;DHT22;33219;47.410;9.730;2023-12-14T12:48:43;4.80;99.90
47482;DHT22;33219;47.410;9.730;2023-12-14T12:51:01;4.90;99.90
47482;DHT22;33219;47.410;9.730;2023-12-14T12:53:39;4.80;99.90
47482;DHT22;33219;47.410;9.730;2023-12-14T13:01:50;4.70;99.90
47482;DHT22;33219;47.410;9.730;2023-12-14T13:04:25;4.70;99.90
47482;DHT22;33219;47.410;9.730;2023-12-14T13:15:42;4.80;99.90
47482;DHT22;33219;47.410;9.730;2023-12-14T13:18:17;4.80;99.90
47482;DHT22;33219;47.410;9.730;2023-12-14T13:35:38;4.90;99.90
47482;DHT22;33219;47.410;9.730;2023-12-14T13:38:12;4.90;99.90
47482;DHT22;33219;47.410;9.730;2023-12-14T13:43:52;5.00;99.90
47482;DHT22;33219;47.410;9.730;2023-12-14T13:46:21;5.00;99.90
47482;DHT22;33219;47.410;9.730;2023-12-14T13:48:48;5.00;99.90
47482;DHT22;33219;47.410;9.730;2023-12-14T13:51:16;5.00;99.90
47482;DHT22;33219;47.410;9.730;2023-12-14T13:53:44;5.00;99.90
47482;DHT22;33219;47.410;9.730;2023-12-14T13:56:13;5.00;99.90
47482;DHT22;33219;47.410;9.730;2023-12-14T13:58:41;5.00;99.90
47482;DHT22;33219;47.410;9.730;2023-12-14T14:01:10;5.00;99.90
47482;DHT22;33219;47.410;9.730;2023-12-14T14:03:41;5.00;99.90
47482;DHT22;33219;47.410;9.730;2023-12-14T14:06:10;4.90;99.90
47482;DHT22;33219;47.410;9.730;2023-12-14T14:08:39;4.90;99.90
47482;DHT22;33219;47.410;9.730;2023-12-14T14:11:06;4.90;99.90
47482;DHT22;33219;47.410;9.730;2023-12-14T14:13:34;4.90;99.90
47482;DHT22;33219;47.410;9.730;2023-12-14T14:16:01;4.90;99.90
47482;DHT22;33219;47.410;9.730;2023-12-14T14:18:30;4.80;99.90
47482;DHT22;33219;47.410;9.730;2023-12-14T14:20:57;4.80;99.90
47482;DHT22;33219;47.410;9.730;2023-12-14T14:23:25;4.80;99.90
47482;DHT22;33219;47.410;9.730;2023-12-14T14:25:52;4.80;99.90
47482;DHT22;33219;47.410;9.730;2023-12-14T14:28:22;4.70;99.90
47482;DHT22;33219;47.410;9.730;2023-12-14T14:30:50;4.70;99.90
47482;DHT22;33219;47.410;9.730;2023-12-14T14:33:17;4.70;99.90
47482;DHT22;33219;47.410;9.730;2023-12-14T14:35:45;4.80;99.90
47482;DHT22;33219;47.410;9.730;2023-12-14T14:38:12;4.80;99.90
47482;DHT22;33219;47.410;9.730;2023-12-14T14:40:39;4.90;99.90
47482;DHT22;33219;47.410;9.730;2023-12-14T14:43:07;4.90;99.90
47482;DHT22;33219;47.410;9.730;2023-12-14T14:45:35;5.00;99.90
47482;DHT22;33219;47.410;9.730;2023-12-14T14:48:04;4.90;99.90
47482;DHT22;33219;47.410;9.730;2023-12-14T14:50:36;4.90;99.90
47482;DHT22;33219;47.410;9.730;2023-12-14T14:53:03;4.80;99.90
47482;DHT22;33219;47.410;9.730;2023-12-14T14:55:30;4.70;99.90
47482;DHT22;33219;47.410;9.730;2023-12-14T14:57:58;4.70;99.90
47482;DHT22;33219;47.410;9.730;2023-12-14T15:00:25;4.70;99.90
47482;DHT22;33219;47.410;9.730;2023-12-14T15:02:52;4.70;99.90
47482;DHT22;33219;47.410;9.730;2023-12-14T15:05:19;4.60;99.90
47482;DHT22;33219;47.410;9.730;2023-12-14T15:07:46;4.60;99.90
47482;DHT22;33219;47.410;9.730;2023-12-14T15:10:13;4.60;99.90
47482;DHT22;33219;47.410;9.730;2023-12-14T15:12:40;4.60;99.90
47482;DHT22;33219;47.410;9.730;2023-12-14T15:15:07;4.70;99.90
47482;DHT22;33219;47.410;9.730;2023-12-14T15:17:34;4.70;99.90
47482;DHT22;33219;47.410;9.730;2023-12-14T15:20:01;4.60;99.90
47482;DHT22;33219;47.410;9.730;2023-12-14T15:22:29;4.70;99.90
47482;DHT22;33219;47.410;9.730;2023-12-14T15:24:56;4.70;99.90
47482;DHT22;33219;47.410;9.730;2023-12-14T15:27:23;4.70;99.90
47482;DHT22;33219;47.410;9.730;2023-12-14T15:29:50;4.70;99.90
47482;DHT22;33219;47.410;9.730;2023-12-14T15:32:19;4.70;99.90
47482;DHT22;33219;47.410;9.730;2023-12-14T15:34:46;4.70;99.90
47482;DHT22;33219;47.410;9.730;2023-12-14T15:37:13;4.70;99.90
47482;DHT22;33219;47.410;9.730;2023-12-14T15:39:40;4.70;99.90
47482;DHT22;33219;47.410;9.730;2023-12-14T15:42:06;4.70;99.90
47482;DHT22;33219;47.410;9.730;2023-12-14T15:44:33;4.70;99.90
47482;DHT22;33219;47.410;9.730;2023-12-14T15:47:00;4.60;99.90
47482;DHT22;33219;47.410;9.730;2023-12-14T15:49:27;4.60;99.90
47482;DHT22;33219;47.410;9.730;2023-12-14T15:51:54;4.60;99.90
47482;DHT22;33219;47.410;9.730;2023-12-14T15:54:22;4.60;99.90
47482;DHT22;33219;47.410;9.730;2023-12-14T15:56:49;4.60;99.90
47482;DHT22;33219;47.410;9.730;2023-12-14T15:59:16;4.60;99.90
47482;DHT22;33219;47.410;9.730;2023-12-14T16:01:43;4.60;99.90
47482;DHT22;33219;47.410;9.730;2023-12-14T16:04:09;4.60;99.90
47482;DHT22;33219;47.410;9.730;2023-12-14T16:06:45;4.60;99.90
47482;DHT22;33219;47.410;9.730;2023-12-14T16:09:09;4.70;99.90
47482;DHT22;33219;47.410;9.730;2023-12-14T16:11:36;4.70;99.90
47482;DHT22;33219;47.410;9.730;2023-12-14T16:14:03;4.70;99.90
47482;DHT22;33219;47.410;9.730;2023-12-14T16:16:30;4.60;99.90
47482;DHT22;33219;47.410;9.730;2023-12-14T16:18:57;4.50;99.90
47482;DHT22;33219;47.410;9.730;2023-12-14T16:21:23;4.50;99.90
47482;DHT22;33219;47.410;9.730;2023-12-14T16:23:50;4.50;99.90
47482;DHT22;33219;47.410;9.730;2023-12-14T16:26:17;4.50;99.90
47482;DHT22;33219;47.410;9.730;2023-12-14T16:28:44;4.50;99.90
47482;DHT22;33219;47.410;9.730;2023-12-14T16:31:11;4.50;99.90
47482;DHT22;33219;47.410;9.730;2023-12-14T16:33:38;4.30;99.90
47482;DHT22;33219;47.410;9.730;2023-12-14T16:36:11;4.30;99.90
47482;DHT22;33219;47.410;9.730;2023-12-14T16:38:40;4.40;99.90
47482;DHT22;33219;47.410;9.730;2023-12-14T16:41:09;4.40;99.90
47482;DHT22;33219;47.410;9.730;2023-12-14T16:43:36;4.40;99.90
47482;DHT22;33219;47.410;9.730;2023-12-14T16:46:03;4.50;99.90
47482;DHT22;33219;47.410;9.730;2023-12-14T16:48:29;4.40;99.90
47482;DHT22;33219;47.410;9.730;2023-12-14T16:50:57;4.40;99.90
47482;DHT22;33219;47.410;9.730;2023-12-14T16:53:23;4.30;99.90
47482;DHT22;33219;47.410;9.730;2023-12-14T16:55:52;4.30;99.90
47482;DHT22;33219;47.410;9.730;2023-12-14T16:58:20;4.30;99.90
47482;DHT22;33219;47.410;9.730;2023-12-14T17:00:47;4.30;99.90
47482;DHT22;33219;47.410;9.730;2023-12-14T17:03:14;4.30;99.90
47482;DHT22;33219;47.410;9.730;2023-12-14T17:05:41;4.30;99.90
47482;DHT22;33219;47.410;9.730;2023-12-14T17:08:07;4.30;99.90
47482;DHT22;33219;47.410;9.730;2023-12-14T17:10:34;4.30;99.90
47482;DHT22;33219;47.410;9.730;2023-12-14T17:13:01;4.30;99.90
47482;DHT22;33219;47.410;9.730;2023-12-14T17:15:28;4.30;99.90
47482;DHT22;33219;47.410;9.730;2023-12-14T17:17:57;4.30;99.90
47482;DHT22;33219;47.410;9.730;2023-12-14T17:20:23;4.30;99.90
47482;DHT22;33219;47.410;9.730;2023-12-14T17:22:50;4.40;99.90
47482;DHT22;33219;47.410;9.730;2023-12-14T17:25:18;4.30;99.90
47482;DHT22;33219;47.410;9.730;2023-12-14T17:27:44;4.30;99.90
47482;DHT22;33219;47.410;9.730;2023-12-14T17:30:12;4.30;99.90
47482;DHT22;33219;47.410;9.730;2023-12-14T17:32:39;4.30;99.90
47482;DHT22;33219;47.410;9.730;2023-12-14T17:35:07;4.30;99.90
47482;DHT22;33219;47.410;9.730;2023-12-14T17:37:34;4.30;99.90
47482;DHT22;33219;47.410;9.730;2023-12-14T17:40:01;4.30;99.90
47482;DHT22;33219;47.410;9.730;2023-12-14T17:42:28;4.30;99.90
47482;DHT22;33219;47.410;9.730;2023-12-14T17:44:55;4.40;99.90
47482;DHT22;33219;47.410;9.730;2023-12-14T17:47:22;4.40;99.90
47482;DHT22;33219;47.410;9.730;2023-12-14T17:49:49;4.40;99.90
47482;DHT22;33219;47.410;9.730;2023-12-14T17:52:16;4.40;99.90
47482;DHT22;33219;47.410;9.730;2023-12-14T17:54:43;4.40;99.90
47482;DHT22;33219;47.410;9.730;2023-12-14T17:57:10;4.40;99.90
47482;DHT22;33219;47.410;9.730;2023-12-14T17:59:40;4.30;99.90
47482;DHT22;33219;47.410;9.730;2023-12-14T18:02:07;4.30;99.90
47482;DHT22;33219;47.410;9.730;2023-12-14T18:04:36;4.30;99.90
47482;DHT22;33219;47.410;9.730;2023-12-14T18:07:02;4.30;99.90
47482;DHT22;33219;47.410;9.730;2023-12-14T18:09:29;4.40;99.90
47482;DHT22;33219;47.410;9.730;2023-12-14T18:11:56;4.40;99.90
47482;DHT22;33219;47.410;9.730;2023-12-14T18:14:23;4.40;99.90
47482;DHT22;33219;47.410;9.730;2023-12-14T18:16:49;4.40;99.90
47482;DHT22;33219;47.410;9.730;2023-12-14T18:19:16;4.50;99.90
47482;DHT22;33219;47.410;9.730;2023-12-14T18:21:45;4.50;99.90
47482;DHT22;33219;47.410;9.730;2023-12-14T18:24:12;4.50;99.90
47482;DHT22;33219;47.410;9.730;2023-12-14T18:26:39;4.50;99.90
47482;DHT22;33219;47.410;9.730;2023-12-14T18:29:06;4.50;99.90
47482;DHT22;33219;47.410;9.730;2023-12-14T18:31:33;4.60;99.90
47482;DHT22;33219;47.410;9.730;2023-12-14T18:34:00;4.60;99.90
47482;DHT22;33219;47.410;9.730;2023-12-14T18:36:27;4.60;99.90
47482;DHT22;33219;47.410;9.730;2023-12-14T18:38:54;4.70;99.90
47482;DHT22;33219;47.410;9.730;2023-12-14T18:41:22;4.70;99.90
47482;DHT22;33219;47.410;9.730;2023-12-14T18:43:49;4.70;99.90
47482;DHT22;33219;47.410;9.730;2023-12-14T18:46:16;4.70;99.90
47482;DHT22;33219;47.410;9.730;2023-12-14T18:48:43;4.70;99.90
47482;DHT22;33219;47.410;9.730;2023-12-14T18:51:10;4.80;99.90
47482;DHT22;33219;47.410;9.730;2023-12-14T18:53:37;4.80;99.90
47482;DHT22;33219;47.410;9.730;2023-12-14T18:56:05;4.80;99.90
47482;DHT22;33219;47.410;9.730;2023-12-14T18:58:32;4.90;99.90
47482;DHT22;33219;47.410;9.730;2023-12-14T19:00:59;4.80;99.90
47482;DHT22;33219;47.410;9.730;2023-12-14T19:03:28;4.80;99.90
47482;DHT22;33219;47.410;9.730;2023-12-14T19:05:55;4.80;99.90
47482;DHT22;33219;47.410;9.730;2023-12-14T19:08:22;4.80;99.90
47482;DHT22;33219;47.410;9.730;2023-12-14T19:10:50;4.80;99.90
47482;DHT22;33219;47.410;9.730;2023-12-14T19:13:17;4.80;99.90
47482;DHT22;33219;47.410;9.730;2023-12-14T19:15:44;4.90;99.90
47482;DHT22;33219;47.410;9.730;2023-12-14T19:18:11;4.90;99.90
47482;DHT22;33219;47.410;9.730;2023-12-14T19:20:38;4.90;99.90
47482;DHT22;33219;47.410;9.730;2023-12-14T19:23:06;4.90;99.90
47482;DHT22;33219;47.410;9.730;2023-12-14T19:25:33;4.90;99.90
47482;DHT22;33219;47.410;9.730;2023-12-14T19:28:01;5.00;99.90
47482;DHT22;33219;47.410;9.730;2023-12-14T19:30:28;5.00;99.90
47482;DHT22;33219;47.410;9.730;2023-12-14T19:32:55;5.00;99.90
47482;DHT22;33219;47.410;9.730;2023-12-14T19:35:22;5.00;99.90
47482;DHT22;33219;47.410;9.730;2023-12-14T19:37:49;5.00;99.90
47482;DHT22;33219;47.410;9.730;2023-12-14T19:40:17;5.00;99.90
47482;DHT22;33219;47.410;9.730;2023-12-14T19:42:44;5.00;99.90
47482;DHT22;33219;47.410;9.730;2023-12-14T19:45:11;5.00;99.90
47482;DHT22;33219;47.410;9.730;2023-12-14T19:47:39;5.00;99.90
47482;DHT22;33219;47.410;9.730;2023-12-14T19:50:07;5.00;99.90
47482;DHT22;33219;47.410;9.730;2023-12-14T19:52:35;5.10;99.90
47482;DHT22;33219;47.410;9.730;2023-12-14T19:55:02;5.00;99.90
47482;DHT22;33219;47.410;9.730;2023-12-14T19:57:30;5.00;99.90
47482;DHT22;33219;47.410;9.730;2023-12-14T19:59:57;5.00;99.90
47482;DHT22;33219;47.410;9.730;2023-12-14T20:02:24;5.00;99.90
47482;DHT22;33219;47.410;9.730;2023-12-14T20:04:51;5.00;99.90
47482;DHT22;33219;47.410;9.730;2023-12-14T20:07:19;5.00;99.90
47482;DHT22;33219;47.410;9.730;2023-12-14T20:09:46;5.00;99.90
47482;DHT22;33219;47.410;9.730;2023-12-14T20:12:15;5.00;99.90
47482;DHT22;33219;47.410;9.730;2023-12-14T20:14:42;5.00;99.90
47482;DHT22;33219;47.410;9.730;2023-12-14T20:17:09;5.00;99.90
47482;DHT22;33219;47.410;9.730;2023-12-14T20:19:37;5.00;99.90
47482;DHT22;33219;47.410;9.730;2023-12-14T20:22:05;5.00;99.90
47482;DHT22;33219;47.410;9.730;2023-12-14T20:24:33;5.00;99.90
47482;DHT22;33219;47.410;9.730;2023-12-14T20:27:00;5.00;99.90
47482;DHT22;33219;47.410;9.730;2023-12-14T20:29:27;5.00;99.90
47482;DHT22;33219;47.410;9.730;2023-12-14T20:31:54;5.10;99.90
47482;DHT22;33219;47.410;9.730;2023-12-14T20:34:22;5.00;99.90
47482;DHT22;33219;47.410;9.730;2023-12-14T20:36:49;5.00;99.90
47482;DHT22;33219;47.410;9.730;2023-12-14T20:39:16;5.00;99.90
47482;DHT22;33219;47.410;9.730;2023-12-14T20:41:43;5.00;99.90
47482;DHT22;33219;47.410;9.730;2023-12-14T20:44:10;4.90;99.90
47482;DHT22;33219;47.410;9.730;2023-12-14T20:46:37;4.80;99.90
47482;DHT22;33219;47.410;9.730;2023-12-14T20:49:04;4.80;99.90
47482;DHT22;33219;47.410;9.730;2023-12-14T20:51:30;4.80;99.90
47482;DHT22;33219;47.410;9.730;2023-12-14T20:53:57;4.90;99.90
47482;DHT22;33219;47.410;9.730;2023-12-14T20:56:25;4.80;99.90
47482;DHT22;33219;47.410;9.730;2023-12-14T20:58:52;4.80;99.90
47482;DHT22;33219;47.410;9.730;2023-12-14T21:01:19;4.80;99.90
47482;DHT22;33219;47.410;9.730;2023-12-14T21:03:46;4.80;99.90
47482;DHT22;33219;47.410;9.730;2023-12-14T21:06:15;4.80;99.90
47482;DHT22;33219;47.410;9.730;2023-12-14T21:08:42;4.70;99.90
47482;DHT22;33219;47.410;9.730;2023-12-14T21:11:09;4.70;99.90
47482;DHT22;33219;47.410;9.730;2023-12-14T21:13:36;4.70;99.90
47482;DHT22;33219;47.410;9.730;2023-12-14T21:16:02;4.70;99.90
47482;DHT22;33219;47.410;9.730;2023-12-14T21:18:29;4.70;99.90
47482;DHT22;33219;47.410;9.730;2023-12-14T21:21:00;4.70;99.90
47482;DHT22;33219;47.410;9.730;2023-12-14T21:23:27;4.70;99.90
47482;DHT22;33219;47.410;9.730;2023-12-14T21:25:54;4.60;99.90
47482;DHT22;33219;47.410;9.730;2023-12-14T21:28:30;4.60;99.90
47482;DHT22;33219;47.410;9.730;2023-12-14T21:30:57;4.60;99.90
47482;DHT22;33219;47.410;9.730;2023-12-14T21:33:25;4.60;99.90
47482;DHT22;33219;47.410;9.730;2023-12-14T21:35:52;4.60;99.90
47482;DHT22;33219;47.410;9.730;2023-12-14T21:38:19;4.70;99.90
47482;DHT22;33219;47.410;9.730;2023-12-14T21:40:46;4.70;99.90